LSMJ weather

CLOSED Turtman Air Base
Turtman, Canton of Valais, Switzerland

Public forecast

Using degrees Celsius for public forecast. Weather courtesy of forecast.io.

METAR (pilot weather report)

Closest report is Sion Airport, 16.8 nm (31.2 km) WSW. Retrieved 2019/07/17 20:20 UTC (0 seconds ago):

LSGS 172020Z AUTO VRB02KT CAVOK 24/09 Q1013

TAF (pilot weather forecast)

Closest forecast is Meiringen Airport, 31.1 nm (57.6 km) NNE. Retrieved 2019/07/17 17:00 UTC (3 hours ago):

TAF LSMM 171625Z 1717/1823 27004KT 9999 SCT080 BECMG 1717/1720 CAVOK TEMPO 1806/1823 9999 SCT090 PROB40 1811/1818 SHRA SCT070TCU